createdAt,value
2019-02-10T00:00:48.124Z,51.33
2019-02-10T00:03:18.483Z,52.60
2019-02-10T00:05:49.079Z,53.93
2019-02-10T00:08:19.825Z,51.70
2019-02-10T00:10:50.892Z,49.87
2019-02-10T00:13:35.300Z,53.80
2019-02-10T00:16:26.877Z,56.97
2019-02-10T00:18:59.884Z,57.97
2019-02-10T00:21:30.905Z,56.27
2019-02-10T00:24:02.078Z,56.20
2019-02-10T00:26:32.964Z,58.27
2019-02-10T00:29:04.102Z,55.90
2019-02-10T00:31:35.183Z,57.80
2019-02-10T00:34:08.175Z,56.37
2019-02-10T00:36:39.324Z,55.63
2019-02-10T00:39:10.179Z,55.77
2019-02-10T00:41:43.124Z,53.53
2019-02-10T00:44:15.123Z,57.93
2019-02-10T00:46:46.002Z,55.40
2019-02-10T00:49:16.965Z,55.00
2019-02-10T00:51:48.663Z,53.70
2019-02-10T00:54:19.180Z,57.83
2019-02-10T00:56:52.015Z,58.27
2019-02-10T00:59:24.205Z,54.70
2019-02-10T01:01:55.143Z,53.60
2019-02-10T01:04:26.190Z,57.97
2019-02-10T01:06:57.116Z,55.30
2019-02-10T01:09:28.063Z,56.40
2019-02-10T01:11:59.238Z,54.97
2019-02-10T01:14:30.148Z,55.90
2019-02-10T01:17:01.104Z,55.80
2019-02-10T01:19:32.184Z,55.13
2019-02-10T01:22:03.126Z,58.30
2019-02-10T01:24:33.959Z,55.17
2019-02-10T01:27:04.463Z,56.90
2019-02-10T01:29:35.292Z,57.07
2019-02-10T01:32:06.928Z,58.27
2019-02-10T01:34:37.875Z,54.37
2019-02-10T01:37:09.285Z,55.70
2019-02-10T01:39:39.672Z,57.47
2019-02-10T01:42:10.574Z,56.60
2019-02-10T01:44:41.821Z,55.97
2019-02-10T01:47:12.419Z,58.90
2019-02-10T01:49:43.288Z,59.60
2019-02-10T01:52:14.362Z,62.23
2019-02-10T01:54:45.298Z,58.70
2019-02-10T01:57:16.173Z,58.70
2019-02-10T01:59:47.225Z,59.37
2019-02-10T02:02:18.188Z,57.17
2019-02-10T02:04:48.972Z,57.53
2019-02-10T02:07:19.867Z,55.77
2019-02-10T02:09:50.823Z,57.07
2019-02-10T02:12:21.477Z,58.67
2019-02-10T02:14:52.470Z,61.57
2019-02-10T02:17:23.814Z,56.77
2019-02-10T02:19:54.712Z,57.03
2019-02-10T02:22:25.392Z,57.87
2019-02-10T02:24:56.517Z,58.37
2019-02-10T02:27:27.476Z,59.10
2019-02-10T02:29:58.412Z,61.87
2019-02-10T02:32:29.433Z,63.80
2019-02-10T02:35:00.239Z,58.83
2019-02-10T02:37:31.269Z,60.77
2019-02-10T02:40:01.688Z,60.03
2019-02-10T02:42:32.982Z,59.47
2019-02-10T02:45:03.660Z,56.97
2019-02-10T02:47:34.529Z,60.37
2019-02-10T02:50:06.177Z,60.60
2019-02-10T02:52:36.610Z,58.60
2019-02-10T02:55:07.833Z,60.83
2019-02-10T02:57:38.357Z,58.80
2019-02-10T03:00:09.482Z,61.73
2019-02-10T03:02:39.912Z,60.17
2019-02-10T03:05:11.038Z,56.80
2019-02-10T03:07:42.304Z,58.30
2019-02-10T03:10:12.820Z,59.40
2019-02-10T03:12:44.140Z,60.73
2019-02-10T03:15:14.747Z,60.60
2019-02-10T03:17:45.991Z,59.03
2019-02-10T03:20:16.890Z,57.37
2019-02-10T03:22:47.948Z,58.07
2019-02-10T03:25:18.734Z,57.93
2019-02-10T03:27:49.743Z,57.47
2019-02-10T03:30:20.751Z,55.90
2019-02-10T03:32:51.724Z,56.30
2019-02-10T03:35:22.606Z,57.53
2019-02-10T03:37:53.558Z,56.67
2019-02-10T03:40:24.902Z,56.60
2019-02-10T03:42:55.593Z,54.63
2019-02-10T03:45:26.639Z,54.73
2019-02-10T03:47:57.580Z,54.90
2019-02-10T03:50:28.605Z,55.77
2019-02-10T03:52:58.950Z,57.00
2019-02-10T03:55:29.957Z,56.63
2019-02-10T03:58:00.915Z,58.43
2019-02-10T04:00:31.869Z,58.77
2019-02-10T04:03:02.968Z,57.43
2019-02-10T04:05:34.162Z,56.10
2019-02-10T04:08:04.893Z,56.63
2019-02-10T04:10:36.197Z,59.10
2019-02-10T04:13:07.170Z,58.70
2019-02-10T04:15:37.908Z,57.27
2019-02-10T04:18:08.948Z,57.50
2019-02-10T04:20:39.729Z,58.00
2019-02-10T04:23:10.910Z,58.50
2019-02-10T04:25:42.108Z,59.50
2019-02-10T04:28:12.996Z,57.80
2019-02-10T04:30:43.987Z,58.00
2019-02-10T04:33:14.830Z,56.83
2019-02-10T04:35:45.842Z,60.67
2019-02-10T04:38:16.799Z,57.90
2019-02-10T04:40:47.174Z,59.07
2019-02-10T04:43:17.995Z,58.80
2019-02-10T04:45:49.172Z,58.13
2019-02-10T04:48:20.260Z,59.40
2019-02-10T04:50:51.765Z,61.90
2019-02-10T04:53:22.182Z,57.10
2019-02-10T04:56:19.101Z,62.00
2019-02-10T04:58:51.213Z,57.17
2019-02-10T05:01:23.177Z,60.37
2019-02-10T05:03:56.270Z,60.53
2019-02-10T05:06:27.228Z,58.63
2019-02-10T05:08:58.225Z,58.00
2019-02-10T05:11:29.182Z,58.13
2019-02-10T05:14:00.071Z,57.77
2019-02-10T05:16:31.067Z,59.00
2019-02-10T05:19:01.987Z,62.53
2019-02-10T05:21:32.923Z,64.50
2019-02-10T05:24:03.927Z,60.30
2019-02-10T05:26:34.717Z,59.47
2019-02-10T05:29:07.375Z,59.70
2019-02-10T05:31:38.447Z,61.03
2019-02-10T05:34:09.271Z,60.90
2019-02-10T05:36:39.806Z,58.40
2019-02-10T05:39:11.259Z,63.90
2019-02-10T05:41:42.396Z,60.27
2019-02-10T05:44:13.247Z,60.40
2019-02-10T05:46:44.257Z,58.50
2019-02-10T05:49:15.110Z,60.30
2019-02-10T05:51:46.089Z,61.80
2019-02-10T05:54:17.014Z,60.57
2019-02-10T05:56:48.096Z,59.60
2019-02-10T05:59:18.457Z,60.97
2019-02-10T06:02:09.397Z,58.37
2019-02-10T06:04:41.939Z,58.40
2019-02-10T06:07:16.531Z,56.20
2019-02-10T06:09:51.051Z,59.13
2019-02-10T06:12:23.834Z,57.77
2019-02-10T06:14:54.547Z,58.27
2019-02-10T06:17:25.446Z,57.97
2019-02-10T06:19:56.335Z,55.70
2019-02-10T06:22:27.280Z,55.83
2019-02-10T06:24:58.250Z,55.83
2019-02-10T06:27:29.327Z,53.30
2019-02-10T06:30:00.332Z,52.00
2019-02-10T06:32:30.986Z,53.40
2019-02-10T06:35:01.625Z,50.97
2019-02-10T06:37:32.566Z,53.10
2019-02-10T06:40:04.697Z,51.93
2019-02-10T06:42:35.357Z,49.13
2019-02-10T06:45:07.168Z,52.43
2019-02-10T06:47:37.804Z,51.00
2019-02-10T06:50:09.032Z,49.33
2019-02-10T06:52:39.425Z,48.90
2019-02-10T06:55:11.864Z,49.20
2019-02-10T06:57:43.830Z,47.77
2019-02-10T07:00:45.883Z,46.60
2019-02-10T07:03:43.160Z,45.07
2019-02-10T07:06:14.123Z,46.60
2019-02-10T07:08:45.043Z,45.73
2019-02-10T07:11:15.695Z,44.43
2019-02-10T07:13:54.600Z,44.30
2019-02-10T07:16:42.638Z,43.10
2019-02-10T07:19:51.109Z,42.27
2019-02-10T07:23:02.706Z,41.80
2019-02-10T07:25:55.884Z,37.17
2019-02-10T07:28:49.142Z,37.40
2019-02-10T07:31:25.056Z,37.60
2019-02-10T07:34:48.270Z,38.93
2019-02-10T07:37:40.117Z,39.13
2019-02-10T07:41:06.866Z,37.83
2019-02-10T07:44:18.187Z,35.43
2019-02-10T07:47:22.180Z,36.90
2019-02-10T07:50:48.051Z,33.80
2019-02-10T07:53:38.851Z,34.73
2019-02-10T07:56:49.083Z,38.97
2019-02-10T07:59:43.400Z,36.40
2019-02-10T08:02:57.860Z,36.27
2019-02-10T08:05:51.658Z,38.13
2019-02-10T08:09:05.376Z,35.63
2019-02-10T08:12:01.135Z,36.63
2019-02-10T08:14:46.672Z,36.20
2019-02-10T08:18:08.653Z,35.03
2019-02-10T08:20:49.324Z,37.23
2019-02-10T08:23:41.124Z,36.90
2019-02-10T08:26:47.563Z,33.60
2019-02-10T08:29:45.096Z,37.47
2019-02-10T08:32:42.584Z,37.90
2019-02-10T08:35:54.758Z,36.07
2019-02-10T08:38:54.815Z,38.30
2019-02-10T08:42:07.039Z,38.17
2019-02-10T08:45:09.605Z,37.17
2019-02-10T08:48:04.126Z,37.50
2019-02-10T08:51:09.694Z,37.00
2019-02-10T08:53:42.765Z,36.20
2019-02-10T08:56:13.306Z,38.17
2019-02-10T08:58:44.257Z,39.37
2019-02-10T09:01:15.178Z,40.20
2019-02-10T09:03:47.923Z,40.80
2019-02-10T09:06:20.321Z,42.33
2019-02-10T09:08:51.268Z,41.27
2019-02-10T09:11:22.279Z,40.93
2019-02-10T09:13:53.322Z,43.80
2019-02-10T09:16:27.981Z,45.00
2019-02-10T09:19:01.968Z,43.10
2019-02-10T09:21:34.125Z,43.50
2019-02-10T09:24:04.863Z,43.57
2019-02-10T09:26:35.677Z,44.73
2019-02-10T09:29:06.323Z,44.93
2019-02-10T09:31:37.141Z,42.87
2019-02-10T09:34:07.713Z,43.20
2019-02-10T09:36:38.429Z,46.90
2019-02-10T09:39:10.795Z,47.57
2019-02-10T09:41:43.830Z,44.50
2019-02-10T09:44:16.475Z,45.17
2019-02-10T09:46:47.385Z,42.47
2019-02-10T09:49:18.388Z,45.10
2019-02-10T09:51:49.505Z,45.23
2019-02-10T09:54:22.514Z,46.13
2019-02-10T09:56:53.489Z,45.17
2019-02-10T09:59:24.905Z,47.50
2019-02-10T10:01:56.516Z,49.00
2019-02-10T10:04:28.644Z,46.00
2019-02-10T10:06:59.531Z,47.47
2019-02-10T10:09:30.569Z,44.47
2019-02-10T10:12:03.590Z,46.90
2019-02-10T10:14:34.496Z,47.00
2019-02-10T10:17:05.684Z,47.50
2019-02-10T10:19:36.342Z,46.47
2019-02-10T10:22:07.003Z,47.87
2019-02-10T10:24:37.547Z,50.03
2019-02-10T10:27:08.543Z,49.10
2019-02-10T10:29:39.137Z,50.83
2019-02-10T10:32:09.574Z,49.73
2019-02-10T10:34:41.821Z,52.23
2019-02-10T10:37:13.583Z,52.17
2019-02-10T10:39:44.626Z,52.87
2019-02-10T10:42:15.672Z,53.87
2019-02-10T10:44:46.601Z,54.03
2019-02-10T10:47:17.720Z,53.30
2019-02-10T10:49:53.276Z,51.77
2019-02-10T10:52:24.656Z,53.93
2019-02-10T10:54:55.835Z,52.57
2019-02-10T10:57:28.822Z,56.40
2019-02-10T11:00:02.806Z,55.37
2019-02-10T11:02:33.735Z,57.20
2019-02-10T11:05:04.527Z,55.10
2019-02-10T11:07:34.953Z,56.60
2019-02-10T11:10:06.287Z,58.23
2019-02-10T11:12:36.671Z,55.77
2019-02-10T11:15:08.415Z,56.47
2019-02-10T11:17:40.206Z,58.50
2019-02-10T11:20:11.176Z,55.77
2019-02-10T11:22:43.895Z,56.70
2019-02-10T11:25:16.007Z,55.87
2019-02-10T11:27:46.894Z,57.80
2019-02-10T11:30:18.027Z,56.70
2019-02-10T11:32:50.132Z,54.30
2019-02-10T11:35:23.602Z,57.03
2019-02-10T11:37:56.113Z,54.17
2019-02-10T11:40:27.263Z,56.37
2019-02-10T11:43:00.103Z,56.70
2019-02-10T11:45:31.082Z,55.10
2019-02-10T11:48:02.023Z,56.27
2019-02-10T11:50:33.050Z,55.27
2019-02-10T11:53:03.625Z,55.00
2019-02-10T11:55:34.135Z,55.03
2019-02-10T11:58:05.139Z,58.57
2019-02-10T12:00:35.925Z,52.87
2019-02-10T12:03:06.726Z,55.13
2019-02-10T12:05:37.163Z,52.40
2019-02-10T12:08:07.996Z,55.93
2019-02-10T12:10:39.166Z,51.40
2019-02-10T12:13:09.567Z,51.87
2019-02-10T12:15:40.224Z,52.40
2019-02-10T12:18:11.046Z,50.37
2019-02-10T12:20:41.827Z,52.17
2019-02-10T12:23:12.589Z,53.07
2019-02-10T12:25:43.329Z,52.83
2019-02-10T12:28:14.209Z,52.33
2019-02-10T12:30:44.987Z,51.27
2019-02-10T12:33:17.465Z,49.07
2019-02-10T12:35:49.312Z,50.70
2019-02-10T12:38:20.337Z,49.10
2019-02-10T12:40:51.220Z,49.57
2019-02-10T12:43:22.192Z,46.90
2019-02-10T12:45:54.842Z,48.10
2019-02-10T12:48:26.569Z,48.00
2019-02-10T12:50:57.383Z,46.97
2019-02-10T12:53:28.330Z,47.57
2019-02-10T12:56:01.415Z,44.47
2019-02-10T12:58:33.326Z,46.20
2019-02-10T13:01:06.297Z,45.80
2019-02-10T13:03:38.513Z,43.07
2019-02-10T13:06:10.277Z,43.90
2019-02-10T13:08:40.804Z,40.23
2019-02-10T13:11:12.483Z,42.20
2019-02-10T13:13:43.904Z,40.00
2019-02-10T13:16:19.048Z,39.47
2019-02-10T13:18:52.568Z,40.10
2019-02-10T13:21:26.060Z,39.27
2019-02-10T13:23:57.365Z,39.30
2019-02-10T13:26:29.562Z,38.37
2019-02-10T13:29:00.520Z,38.67
2019-02-10T13:31:31.403Z,37.73
2019-02-10T13:34:04.498Z,37.40
2019-02-10T13:36:35.598Z,36.83
2019-02-10T13:39:08.176Z,38.20
2019-02-10T13:41:38.740Z,39.70
2019-02-10T13:44:11.438Z,36.30
2019-02-10T13:46:43.491Z,38.00
2019-02-10T13:49:15.844Z,39.07
2019-02-10T13:51:48.522Z,38.20
2019-02-10T13:54:20.788Z,38.90
2019-02-10T13:56:53.556Z,36.50
2019-02-10T13:59:24.661Z,37.70
2019-02-10T14:01:55.669Z,35.33
2019-02-10T14:04:26.596Z,37.50
2019-02-10T14:06:57.697Z,37.10
2019-02-10T14:09:29.614Z,37.93
2019-02-10T14:12:01.643Z,37.30
2019-02-10T14:14:32.661Z,37.37
2019-02-10T14:17:03.690Z,35.53
2019-02-10T14:19:34.638Z,35.43
2019-02-10T14:22:05.529Z,37.10
2019-02-10T14:24:36.053Z,36.07
2019-02-10T14:27:06.600Z,33.27
2019-02-10T14:29:37.718Z,33.40
2019-02-10T14:32:09.108Z,33.40
2019-02-10T14:34:39.531Z,35.77
2019-02-10T14:37:10.122Z,33.67
2019-02-10T14:39:40.633Z,34.43
2019-02-10T14:42:11.726Z,33.00
2019-02-10T14:44:42.485Z,31.40
2019-02-10T14:47:13.213Z,30.73
2019-02-10T14:49:43.790Z,31.13
2019-02-10T14:52:14.892Z,30.77
2019-02-10T14:54:45.677Z,32.30
2019-02-10T14:57:16.256Z,32.00
2019-02-10T14:59:46.909Z,31.93
2019-02-10T15:02:17.855Z,32.07
2019-02-10T15:04:48.907Z,32.43
2019-02-10T15:07:25.172Z,29.60
2019-02-10T15:09:52.955Z,30.53
2019-02-10T15:12:23.860Z,27.73
2019-02-10T15:14:55.032Z,30.30
2019-02-10T15:17:25.972Z,30.60
2019-02-10T15:19:56.896Z,29.60
2019-02-10T15:22:29.961Z,31.40
2019-02-10T15:25:01.043Z,31.43
2019-02-10T15:27:32.053Z,30.70
2019-02-10T15:30:05.197Z,29.33
2019-02-10T15:32:36.087Z,30.33
2019-02-10T15:35:06.891Z,30.43
2019-02-10T15:37:38.048Z,29.63
2019-02-10T15:40:09.178Z,32.23
2019-02-10T15:42:40.624Z,31.07
2019-02-10T15:45:13.069Z,31.07
2019-02-10T15:47:44.123Z,31.87
2019-02-10T15:50:15.109Z,31.77
2019-02-10T15:52:47.159Z,30.43
2019-02-10T15:55:19.349Z,33.80
2019-02-10T15:57:50.446Z,33.27
2019-02-10T16:00:23.373Z,38.57
2019-02-10T16:02:55.118Z,55.83
2019-02-10T16:05:26.176Z,35.27
2019-02-10T16:07:59.080Z,33.30
2019-02-10T16:10:31.357Z,33.13
2019-02-10T16:13:04.278Z,33.33
2019-02-10T16:15:35.238Z,31.33
2019-02-10T16:18:07.210Z,32.93
2019-02-10T16:20:39.299Z,32.60
2019-02-10T16:23:10.299Z,32.30
2019-02-10T16:25:40.976Z,34.10
2019-02-10T16:28:12.661Z,34.37
2019-02-10T16:30:44.325Z,33.37
2019-02-10T16:33:16.341Z,36.17
2019-02-10T16:35:47.343Z,35.10
2019-02-10T16:38:18.201Z,35.00
2019-02-10T16:40:49.067Z,34.80
2019-02-10T16:43:19.753Z,36.50
2019-02-10T16:45:54.410Z,36.70
2019-02-10T16:48:27.384Z,36.20
2019-02-10T16:50:58.368Z,35.83
2019-02-10T16:53:32.109Z,36.43
2019-02-10T16:56:05.246Z,36.37
2019-02-10T16:58:37.314Z,36.13
2019-02-10T17:01:10.473Z,35.50
2019-02-10T17:03:41.043Z,38.10
2019-02-10T17:06:12.280Z,39.40
2019-02-10T17:08:43.169Z,40.17
2019-02-10T17:11:14.498Z,38.77
2019-02-10T17:13:47.478Z,39.80
2019-02-10T17:16:18.561Z,39.40
2019-02-10T17:18:51.524Z,42.93
2019-02-10T17:21:22.497Z,43.07
2019-02-10T17:23:53.700Z,41.57
2019-02-10T17:26:24.598Z,44.60
2019-02-10T17:28:55.730Z,45.57
2019-02-10T17:31:28.518Z,44.67
2019-02-10T17:33:59.635Z,44.70
2019-02-10T17:36:30.718Z,53.13
2019-02-10T17:39:01.576Z,44.50
2019-02-10T17:41:39.268Z,47.40
2019-02-10T17:44:11.739Z,48.07
2019-02-10T17:46:44.803Z,45.07
2019-02-10T17:49:16.638Z,43.83
2019-02-10T17:51:47.535Z,44.13
2019-02-10T17:54:19.268Z,43.83
2019-02-10T17:56:49.727Z,43.20
2019-02-10T17:59:21.630Z,44.80
2019-02-10T18:01:53.860Z,44.10
2019-02-10T18:04:24.667Z,41.70
2019-02-10T18:06:55.657Z,41.33
2019-02-10T18:09:26.860Z,41.00
2019-02-10T18:11:59.796Z,43.03
2019-02-10T18:14:57.831Z,42.27
2019-02-10T18:17:53.609Z,43.40
2019-02-10T18:20:44.531Z,39.17
2019-02-10T18:23:33.044Z,42.13
2019-02-10T18:26:24.587Z,41.77
2019-02-10T18:29:13.125Z,41.97
2019-02-10T18:32:02.699Z,40.97
2019-02-10T18:34:43.950Z,42.90
2019-02-10T18:37:37.342Z,43.57
2019-02-10T18:40:27.396Z,43.30
2019-02-10T18:43:12.201Z,43.73
2019-02-10T18:45:57.581Z,43.87
2019-02-10T18:48:50.697Z,42.00
2019-02-10T18:51:50.920Z,45.97
2019-02-10T18:54:33.454Z,43.30
2019-02-10T18:57:31.749Z,43.67
2019-02-10T19:00:24.183Z,44.17
2019-02-10T19:03:04.124Z,46.00
2019-02-10T19:05:46.750Z,45.57
2019-02-10T19:08:32.074Z,49.47
2019-02-10T19:11:21.459Z,46.73
2019-02-10T19:14:01.850Z,43.13
2019-02-10T19:16:58.675Z,42.17
2019-02-10T19:19:42.448Z,42.80
2019-02-10T19:22:32.423Z,44.53
2019-02-10T19:25:19.773Z,42.60
2019-02-10T19:28:03.685Z,41.77
2019-02-10T19:31:10.984Z,43.47
2019-02-10T19:33:58.732Z,41.57
2019-02-10T19:36:43.328Z,45.77
2019-02-10T19:39:32.471Z,41.73
2019-02-10T19:42:19.180Z,42.67
2019-02-10T19:45:09.876Z,46.20
2019-02-10T19:47:57.920Z,47.33
2019-02-10T19:50:48.825Z,48.00
2019-02-10T19:53:27.301Z,45.97
2019-02-10T19:56:14.058Z,46.40
2019-02-10T19:59:03.406Z,45.07
2019-02-10T20:02:07.193Z,48.23
2019-02-10T20:05:02.015Z,50.27
2019-02-10T20:07:50.524Z,49.03
2019-02-10T20:10:41.049Z,48.17
2019-02-10T20:13:28.003Z,49.80
2019-02-10T20:16:07.283Z,49.30
2019-02-10T20:19:00.171Z,50.70
2019-02-10T20:21:54.840Z,48.87
2019-02-10T20:24:44.217Z,51.13
2019-02-10T20:27:38.688Z,53.97
2019-02-10T20:30:19.898Z,50.07
2019-02-10T20:33:21.854Z,51.20
2019-02-10T20:36:02.624Z,49.27
2019-02-10T20:38:50.512Z,52.80
2019-02-10T20:41:49.027Z,52.53
2019-02-10T20:44:43.628Z,54.00
2019-02-10T20:47:42.392Z,55.20
2019-02-10T20:50:37.009Z,58.17
2019-02-10T20:53:24.959Z,55.30
2019-02-10T20:56:15.289Z,56.60
2019-02-10T20:59:04.660Z,53.50
2019-02-10T21:01:55.303Z,51.27
2019-02-10T21:04:43.514Z,52.03
2019-02-10T21:07:42.507Z,52.57
2019-02-10T21:10:44.529Z,56.77
2019-02-10T21:13:50.408Z,57.40
2019-02-10T21:16:49.947Z,56.90
2019-02-10T21:19:40.349Z,58.57
2019-02-10T21:22:27.827Z,55.00
2019-02-10T21:25:13.442Z,55.40
2019-02-10T21:28:12.483Z,51.97
2019-02-10T21:31:01.810Z,55.67
2019-02-10T21:33:51.981Z,53.37
2019-02-10T21:36:36.266Z,52.97
2019-02-10T21:39:22.592Z,53.23
2019-02-10T21:42:17.578Z,53.70
2019-02-10T21:45:15.281Z,54.30
2019-02-10T21:48:05.133Z,54.07
2019-02-10T21:50:37.788Z,53.67
2019-02-10T21:53:10.713Z,54.40
2019-02-10T21:55:41.199Z,50.50
2019-02-10T21:58:12.716Z,55.70
2019-02-10T22:00:44.663Z,53.63
2019-02-10T22:03:17.627Z,45.57
2019-02-10T22:05:50.686Z,44.60
2019-02-10T22:08:21.743Z,41.90
2019-02-10T22:10:52.837Z,42.90
2019-02-10T22:13:23.747Z,41.43
2019-02-10T22:15:56.850Z,44.07
2019-02-10T22:18:28.774Z,42.37
2019-02-10T22:21:02.035Z,41.40
2019-02-10T22:23:32.715Z,39.77
2019-02-10T22:26:03.853Z,39.60
2019-02-10T22:28:35.853Z,35.17
2019-02-10T22:31:07.788Z,32.10
2019-02-10T22:33:38.815Z,28.73
2019-02-10T22:36:09.776Z,26.67
2019-02-10T22:38:40.635Z,25.57
2019-02-10T22:41:11.598Z,24.60
2019-02-10T22:43:42.005Z,19.33
2019-02-10T22:46:12.866Z,18.40
2019-02-10T22:48:43.778Z,17.00
2019-02-10T22:51:14.620Z,14.93
2019-02-10T22:53:45.355Z,13.83
2019-02-10T22:56:15.992Z,14.50
2019-02-10T22:58:46.870Z,13.73
2019-02-10T23:01:17.620Z,12.60
2019-02-10T23:03:49.148Z,11.90
2019-02-10T23:06:19.530Z,12.03
2019-02-10T23:08:50.142Z,11.97
2019-02-10T23:11:20.523Z,13.40
2019-02-10T23:13:50.917Z,12.53
2019-02-10T23:16:22.661Z,12.80
2019-02-10T23:18:53.473Z,13.33
2019-02-10T23:21:24.176Z,12.10
2019-02-10T23:23:55.281Z,11.97
2019-02-10T23:26:26.001Z,10.40
2019-02-10T23:28:57.070Z,10.33
2019-02-10T23:31:27.978Z,10.90
2019-02-10T23:33:59.108Z,8.30
2019-02-10T23:36:30.090Z,9.63
2019-02-10T23:39:01.024Z,7.97
2019-02-10T23:41:31.992Z,9.00
2019-02-10T23:44:02.899Z,7.17
2019-02-10T23:46:33.823Z,5.93
2019-02-10T23:49:04.227Z,4.83
2019-02-10T23:51:35.246Z,5.00
2019-02-10T23:54:06.241Z,4.00
2019-02-10T23:56:37.163Z,4.20
2019-02-10T23:59:08.264Z,4.73
